createdAt,value
2023-02-11T00:01:48.552Z,7.75
2023-02-11T00:04:15.103Z,7.74
2023-02-11T00:06:41.674Z,7.70
2023-02-11T00:09:08.578Z,7.29
2023-02-11T00:11:35.177Z,7.64
2023-02-11T00:14:04.779Z,7.75
2023-02-11T00:16:32.435Z,7.18
2023-02-11T00:19:00.718Z,7.41
2023-02-11T00:21:28.307Z,7.21
2023-02-11T00:23:57.057Z,7.74
2023-02-11T00:26:26.781Z,7.69
2023-02-11T00:28:53.797Z,7.72
2023-02-11T00:31:22.627Z,7.79
2023-02-11T00:33:49.632Z,7.74
2023-02-11T00:36:19.867Z,7.72
2023-02-11T00:38:47.933Z,7.66
2023-02-11T00:41:15.116Z,7.72
2023-02-11T00:43:42.283Z,7.74
2023-02-11T00:46:09.260Z,7.78
2023-02-11T00:48:36.256Z,7.78
2023-02-11T00:51:04.124Z,7.76
2023-02-11T00:53:31.539Z,7.76
2023-02-11T00:55:58.192Z,7.24
2023-02-11T00:58:25.654Z,7.17
2023-02-11T01:00:53.416Z,7.72
2023-02-11T01:03:20.012Z,7.21
2023-02-11T01:05:48.148Z,7.75
2023-02-11T01:08:14.857Z,7.71
2023-02-11T01:10:41.444Z,7.67
2023-02-11T01:13:08.241Z,7.65
2023-02-11T01:15:34.840Z,7.20
2023-02-11T01:18:01.477Z,7.57
2023-02-11T01:20:29.532Z,7.66
2023-02-11T01:22:56.816Z,7.67
2023-02-11T01:25:23.369Z,7.66
2023-02-11T01:27:49.905Z,7.69
2023-02-11T01:30:16.491Z,7.55
2023-02-11T01:32:43.072Z,7.66
2023-02-11T01:35:10.625Z,7.67
2023-02-11T01:37:37.190Z,7.59
2023-02-11T01:40:07.997Z,7.57
2023-02-11T01:42:34.647Z,7.59
2023-02-11T01:45:21.742Z,7.47
2023-02-11T01:47:48.260Z,7.13
2023-02-11T01:50:14.857Z,6.98
2023-02-11T01:52:42.609Z,7.65
2023-02-11T01:55:31.228Z,7.06
2023-02-11T01:58:02.426Z,7.13
2023-02-11T02:00:38.558Z,7.52
2023-02-11T02:03:10.086Z,7.55
2023-02-11T02:05:53.485Z,7.60
2023-02-11T02:08:29.459Z,7.60
2023-02-11T02:10:58.384Z,7.19
2023-02-11T02:13:25.596Z,7.62
2023-02-11T02:15:53.972Z,7.09
2023-02-11T02:18:31.130Z,7.57
2023-02-11T02:21:11.311Z,7.50
2023-02-11T02:24:03.990Z,7.65
2023-02-11T02:26:39.509Z,7.65
2023-02-11T02:29:28.092Z,7.63
2023-02-11T02:32:10.255Z,7.64
2023-02-11T02:34:44.446Z,7.57
2023-02-11T02:37:24.161Z,6.95
2023-02-11T02:39:50.895Z,7.46
2023-02-11T02:42:19.745Z,7.54
2023-02-11T02:44:52.000Z,7.50
2023-02-11T02:47:19.407Z,7.49
2023-02-11T02:49:45.952Z,7.57
2023-02-11T02:52:29.406Z,7.59
2023-02-11T02:55:10.936Z,7.54
2023-02-11T02:57:55.809Z,7.55
2023-02-11T03:00:47.778Z,6.89
2023-02-11T03:03:35.793Z,7.32
2023-02-11T03:06:12.843Z,6.67
2023-02-11T03:08:56.557Z,7.07
2023-02-11T03:11:24.748Z,6.91
2023-02-11T03:13:52.563Z,6.83
2023-02-11T03:16:36.050Z,7.14
2023-02-11T03:19:08.678Z,7.11
2023-02-11T03:21:38.434Z,7.30
2023-02-11T03:24:16.574Z,7.24
2023-02-11T03:26:54.811Z,7.02
2023-02-11T03:29:44.119Z,7.17
2023-02-11T03:32:16.441Z,7.19
2023-02-11T03:35:09.323Z,7.23
2023-02-11T03:37:52.608Z,7.21
2023-02-11T03:40:25.464Z,7.27
2023-02-11T03:43:21.085Z,7.29
2023-02-11T03:45:51.060Z,7.30
2023-02-11T03:48:29.831Z,6.79
2023-02-11T03:50:59.577Z,7.26
2023-02-11T03:53:26.181Z,6.68
2023-02-11T03:55:54.801Z,6.87
2023-02-11T03:58:21.301Z,7.24
2023-02-11T04:00:48.870Z,7.16
2023-02-11T04:03:15.441Z,7.23
2023-02-11T04:05:42.125Z,7.29
2023-02-11T04:08:08.980Z,7.22
2023-02-11T04:10:35.604Z,6.93
2023-02-11T04:13:02.093Z,7.24
2023-02-11T04:15:28.663Z,7.23
2023-02-11T04:17:55.202Z,7.13
2023-02-11T04:20:21.732Z,7.23
2023-02-11T04:22:48.311Z,7.36
2023-02-11T04:25:14.816Z,7.29
2023-02-11T04:27:41.304Z,7.09
2023-02-11T04:30:08.319Z,6.88
2023-02-11T04:32:34.851Z,7.33
2023-02-11T04:35:02.170Z,7.16
2023-02-11T04:37:28.766Z,7.35
2023-02-11T04:39:55.279Z,7.36
2023-02-11T04:42:23.544Z,7.31
2023-02-11T04:44:50.147Z,6.83
2023-02-11T04:47:16.777Z,7.32
2023-02-11T04:49:43.615Z,7.27
2023-02-11T04:52:10.520Z,6.82
2023-02-11T04:54:37.120Z,7.38
2023-02-11T04:57:03.683Z,7.31
2023-02-11T04:59:30.254Z,7.18
2023-02-11T05:01:56.882Z,7.31
2023-02-11T05:04:23.543Z,7.27
2023-02-11T05:06:50.155Z,7.36
2023-02-11T05:09:16.916Z,6.91
2023-02-11T05:11:43.547Z,7.34
2023-02-11T05:14:10.095Z,7.31
2023-02-11T05:16:36.697Z,6.90
2023-02-11T05:19:03.590Z,6.88
2023-02-11T05:21:30.287Z,6.80
2023-02-11T05:23:56.882Z,7.38
2023-02-11T05:26:23.375Z,7.29
2023-02-11T05:28:49.928Z,7.39
2023-02-11T05:31:16.880Z,7.48
2023-02-11T05:33:43.466Z,7.34
2023-02-11T05:36:12.618Z,7.42
2023-02-11T05:38:39.724Z,6.95
2023-02-11T05:41:06.980Z,6.97
2023-02-11T05:43:35.262Z,7.44
2023-02-11T05:46:02.861Z,7.06
2023-02-11T05:48:29.787Z,7.42
2023-02-11T05:50:56.598Z,7.56
2023-02-11T05:53:23.246Z,7.24
2023-02-11T05:55:50.192Z,7.54
2023-02-11T05:58:16.824Z,6.96
2023-02-11T06:00:43.323Z,7.23
2023-02-11T06:03:09.954Z,7.52
2023-02-11T06:05:36.536Z,7.57
2023-02-11T06:08:03.165Z,7.57
2023-02-11T06:10:30.327Z,6.98
2023-02-11T06:12:56.839Z,7.63
2023-02-11T06:15:23.525Z,7.64
2023-02-11T06:17:50.107Z,7.51
2023-02-11T06:20:16.759Z,7.67
2023-02-11T06:22:43.306Z,7.58
2023-02-11T06:25:11.166Z,7.18
2023-02-11T06:27:38.282Z,7.67
2023-02-11T06:30:06.287Z,7.02
2023-02-11T06:32:43.690Z,7.21
2023-02-11T06:35:12.144Z,7.25
2023-02-11T06:37:39.078Z,7.65
2023-02-11T06:40:06.312Z,7.67
2023-02-11T06:42:32.924Z,7.60
2023-02-11T06:44:59.455Z,7.23
2023-02-11T06:47:25.957Z,7.67
2023-02-11T06:49:52.480Z,7.15
2023-02-11T06:52:19.021Z,7.64
2023-02-11T06:54:45.560Z,7.68
2023-02-11T06:57:12.161Z,7.79
2023-02-11T06:59:38.711Z,7.72
2023-02-11T07:02:05.313Z,7.32
2023-02-11T07:04:31.839Z,7.19
2023-02-11T07:06:58.348Z,7.25
2023-02-11T07:09:24.866Z,7.53
2023-02-11T07:11:51.464Z,7.74
2023-02-11T07:14:18.131Z,7.54
2023-02-11T07:16:44.654Z,7.75
2023-02-11T07:19:11.271Z,7.38
2023-02-11T07:21:37.795Z,7.75
2023-02-11T07:24:11.046Z,7.74
2023-02-11T07:26:38.011Z,7.80
2023-02-11T07:29:04.902Z,7.84
2023-02-11T07:31:32.060Z,7.79
2023-02-11T07:34:00.816Z,7.76
2023-02-11T07:36:29.028Z,7.89
2023-02-11T07:38:55.646Z,7.90
2023-02-11T07:41:23.395Z,7.89
2023-02-11T07:43:50.835Z,7.94
2023-02-11T07:46:20.889Z,7.70
2023-02-11T07:48:47.814Z,7.89
2023-02-11T07:51:17.170Z,8.05
2023-02-11T07:53:45.776Z,7.89
2023-02-11T07:56:14.258Z,7.98
2023-02-11T07:58:42.988Z,7.57
2023-02-11T08:01:16.785Z,8.09
2023-02-11T08:03:43.516Z,7.93
2023-02-11T08:06:16.622Z,8.05
2023-02-11T08:08:43.735Z,8.01
2023-02-11T08:11:16.119Z,7.35
2023-02-11T08:13:43.230Z,8.18
2023-02-11T08:16:18.578Z,8.25
2023-02-11T08:18:45.389Z,8.16
2023-02-11T08:21:12.142Z,7.86
2023-02-11T08:23:40.278Z,8.30
2023-02-11T08:26:10.958Z,7.89
2023-02-11T08:28:40.005Z,8.24
2023-02-11T08:31:11.695Z,8.21
2023-02-11T08:33:40.321Z,8.36
2023-02-11T08:36:11.511Z,8.43
2023-02-11T08:38:38.529Z,8.38
2023-02-11T08:41:05.341Z,7.99
2023-02-11T08:43:33.315Z,8.38
2023-02-11T08:46:02.048Z,7.97
2023-02-11T08:48:29.966Z,8.58
2023-02-11T08:50:57.238Z,8.46
2023-02-11T08:53:23.803Z,8.45
2023-02-11T08:55:52.245Z,8.09
2023-02-11T08:58:19.743Z,8.07
2023-02-11T09:00:47.039Z,8.44
2023-02-11T09:03:15.256Z,8.26
2023-02-11T09:05:48.180Z,8.33
2023-02-11T09:08:15.269Z,8.28
2023-02-11T09:10:42.222Z,8.79
2023-02-11T09:13:09.489Z,8.90
2023-02-11T09:15:36.405Z,8.48
2023-02-11T09:18:04.300Z,8.99
2023-02-11T09:20:31.576Z,8.70
2023-02-11T09:22:59.091Z,9.04
2023-02-11T09:25:25.918Z,8.98
2023-02-11T09:27:53.705Z,8.94
2023-02-11T09:30:20.801Z,9.05
2023-02-11T09:32:47.623Z,8.71
2023-02-11T09:35:14.347Z,8.70
2023-02-11T09:37:40.968Z,9.02
2023-02-11T09:40:07.960Z,9.04
2023-02-11T09:42:53.711Z,8.90
2023-02-11T09:45:29.333Z,9.21
2023-02-11T09:48:00.412Z,9.30
2023-02-11T09:50:36.080Z,9.17
2023-02-11T09:53:25.186Z,9.30
2023-02-11T09:55:59.528Z,9.59
2023-02-11T09:58:28.389Z,9.68
2023-02-11T10:01:00.511Z,9.61
2023-02-11T10:03:46.538Z,9.67
2023-02-11T10:06:43.117Z,9.66
2023-02-11T10:09:21.627Z,9.75
2023-02-11T10:12:22.072Z,9.75
2023-02-11T10:15:18.195Z,9.87
2023-02-11T10:18:13.251Z,9.82
2023-02-11T10:21:03.121Z,9.72
2023-02-11T10:23:35.912Z,9.91
2023-02-11T10:26:03.429Z,9.95
2023-02-11T10:28:35.153Z,9.59
2023-02-11T10:31:06.879Z,9.94
2023-02-11T10:33:45.329Z,10.02
2023-02-11T10:36:14.050Z,9.80
2023-02-11T10:38:40.735Z,10.17
2023-02-11T10:41:13.558Z,9.66
2023-02-11T10:43:42.267Z,10.33
2023-02-11T10:46:19.426Z,10.18
2023-02-11T10:48:52.777Z,10.06
2023-02-11T10:51:23.691Z,9.93
2023-02-11T10:54:14.257Z,10.33
2023-02-11T10:56:46.322Z,10.43
2023-02-11T10:59:29.247Z,10.07
2023-02-11T11:02:06.825Z,10.42
2023-02-11T11:04:44.854Z,10.66
2023-02-11T11:07:23.637Z,10.83
2023-02-11T11:09:59.647Z,10.84
2023-02-11T11:12:40.255Z,11.13
2023-02-11T11:15:10.360Z,11.44
2023-02-11T11:17:37.820Z,11.52
2023-02-11T11:20:20.638Z,11.36
2023-02-11T11:22:48.121Z,12.17
2023-02-11T11:25:27.160Z,12.31
2023-02-11T11:27:57.730Z,12.35
2023-02-11T11:30:31.625Z,12.15
2023-02-11T11:32:59.201Z,12.02
2023-02-11T11:35:28.544Z,11.77
2023-02-11T11:38:01.361Z,12.24
2023-02-11T11:40:31.128Z,12.06
2023-02-11T11:43:12.897Z,12.29
2023-02-11T11:45:51.794Z,11.94
2023-02-11T11:48:26.993Z,11.87
2023-02-11T11:50:58.018Z,11.20
2023-02-11T11:53:30.364Z,11.63
2023-02-11T11:56:04.507Z,11.14
2023-02-11T11:58:32.127Z,10.91
2023-02-11T12:01:26.736Z,11.58
2023-02-11T12:04:11.574Z,12.04
2023-02-11T12:06:52.368Z,12.32
2023-02-11T12:09:49.628Z,12.32
2023-02-11T12:12:32.668Z,11.45
2023-02-11T12:15:27.446Z,11.77
2023-02-11T12:18:00.013Z,11.86
2023-02-11T12:20:26.497Z,11.90
2023-02-11T12:26:28.068Z,11.82
2023-02-11T12:29:29.274Z,12.77
2023-02-11T12:32:22.270Z,13.30
2023-02-11T12:35:17.930Z,13.89
2023-02-11T12:38:16.023Z,15.04
2023-02-11T12:41:01.262Z,14.38
2023-02-11T12:43:37.012Z,14.17
2023-02-11T12:46:10.880Z,14.24
2023-02-11T12:48:51.304Z,14.31
2023-02-11T12:51:32.174Z,15.07
2023-02-11T12:54:23.017Z,15.62
2023-02-11T12:57:03.369Z,15.97
2023-02-11T12:59:37.834Z,15.15
2023-02-11T13:02:16.918Z,14.71
2023-02-11T13:04:50.108Z,14.30
2023-02-11T13:07:31.004Z,14.16
2023-02-11T13:10:19.722Z,13.79
2023-02-11T13:13:08.617Z,13.33
2023-02-11T13:15:35.478Z,12.97
2023-02-11T13:18:40.106Z,13.35
2023-02-11T13:21:15.541Z,13.61
2023-02-11T13:24:07.548Z,13.80
2023-02-11T13:26:45.782Z,13.65
2023-02-11T13:29:33.063Z,13.79
2023-02-11T13:32:09.320Z,13.16
2023-02-11T13:34:41.728Z,13.28
2023-02-11T13:37:37.082Z,13.00
2023-02-11T13:40:20.409Z,13.00
2023-02-11T13:42:56.446Z,12.36
2023-02-11T13:45:38.242Z,13.54
2023-02-11T13:48:13.524Z,13.73
2023-02-11T13:50:48.469Z,13.86
2023-02-11T13:53:17.187Z,14.05
2023-02-11T13:55:47.729Z,14.51
2023-02-11T13:58:14.274Z,14.51
2023-02-11T14:00:47.559Z,14.05
2023-02-11T14:03:32.501Z,14.44
2023-02-11T14:06:26.955Z,14.83
2023-02-11T14:09:09.190Z,14.22
2023-02-11T14:11:41.828Z,14.59
2023-02-11T14:14:17.491Z,14.14
2023-02-11T14:17:01.736Z,13.65
2023-02-11T14:19:44.227Z,13.35
2023-02-11T14:22:29.626Z,13.25
2023-02-11T14:24:57.682Z,12.95
2023-02-11T14:27:29.472Z,12.83
2023-02-11T14:30:04.693Z,12.34
2023-02-11T14:32:47.704Z,12.50
2023-02-11T14:35:26.019Z,12.65
2023-02-11T14:38:14.544Z,12.39
2023-02-11T14:41:06.239Z,12.28
2023-02-11T14:43:47.099Z,12.40
2023-02-11T14:46:17.126Z,12.09
2023-02-11T14:48:47.593Z,11.68
2023-02-11T14:51:26.942Z,11.89
2023-02-11T14:53:58.691Z,11.34
2023-02-11T14:56:30.976Z,11.64
2023-02-11T14:58:58.255Z,11.63
2023-02-11T15:01:36.625Z,11.68
2023-02-11T15:04:05.766Z,11.66
2023-02-11T15:06:37.333Z,11.02
2023-02-11T15:09:07.604Z,10.84
2023-02-11T15:11:39.766Z,11.30
2023-02-11T15:14:10.439Z,11.45
2023-02-11T15:16:42.764Z,10.94
2023-02-11T15:19:21.103Z,10.57
2023-02-11T15:21:48.287Z,11.19
2023-02-11T15:24:29.766Z,11.25
2023-02-11T15:26:57.232Z,10.96
2023-02-11T15:29:45.051Z,11.21
2023-02-11T15:32:25.921Z,10.91
2023-02-11T15:34:54.220Z,11.16
2023-02-11T15:37:27.187Z,11.30
2023-02-11T15:39:54.399Z,11.33
2023-02-11T15:42:31.420Z,10.99
2023-02-11T15:45:26.030Z,11.20
2023-02-11T15:47:56.143Z,10.64
2023-02-11T15:50:32.257Z,11.02
2023-02-11T15:53:05.722Z,11.02
2023-02-11T15:55:32.924Z,10.94
2023-02-11T15:58:01.813Z,10.89
2023-02-11T16:00:44.774Z,10.85
2023-02-11T16:03:27.746Z,10.64
2023-02-11T16:05:56.432Z,10.79
2023-02-11T16:08:29.764Z,10.21
2023-02-11T16:11:02.396Z,10.05
2023-02-11T16:13:33.608Z,9.86
2023-02-11T16:16:05.856Z,10.29
2023-02-11T16:18:39.650Z,10.21
2023-02-11T16:21:15.802Z,10.16
2023-02-11T16:23:48.764Z,9.99
2023-02-11T16:26:39.350Z,9.95
2023-02-11T16:29:11.466Z,9.24
2023-02-11T16:31:42.079Z,9.67
2023-02-11T16:34:16.499Z,9.48
2023-02-11T16:36:43.286Z,9.13
2023-02-11T16:39:11.054Z,8.66
2023-02-11T16:41:37.639Z,8.54
2023-02-11T16:44:04.283Z,8.47
2023-02-11T16:46:31.798Z,8.87
2023-02-11T16:49:08.065Z,8.74
2023-02-11T16:51:34.623Z,8.02
2023-02-11T16:54:01.228Z,8.45
2023-02-11T16:56:27.798Z,8.48
2023-02-11T16:58:54.319Z,8.30
2023-02-11T17:01:21.095Z,8.47
2023-02-11T17:03:48.342Z,8.21
2023-02-11T17:06:15.157Z,8.04
2023-02-11T17:08:41.828Z,7.99
2023-02-11T17:11:08.525Z,8.15
2023-02-11T17:13:36.386Z,7.94
2023-02-11T17:16:03.020Z,7.94
2023-02-11T17:18:29.841Z,7.73
2023-02-11T17:20:56.427Z,7.30
2023-02-11T17:23:23.030Z,7.64
2023-02-11T17:25:55.703Z,7.51
2023-02-11T17:28:22.368Z,7.50
2023-02-11T17:30:48.935Z,7.26
2023-02-11T17:33:16.035Z,6.38
2023-02-11T17:35:42.557Z,7.28
2023-02-11T17:38:09.111Z,7.30
2023-02-11T17:40:35.654Z,7.08
2023-02-11T17:43:02.568Z,7.25
2023-02-11T17:45:29.348Z,6.81
2023-02-11T17:47:55.981Z,7.25
2023-02-11T17:50:22.517Z,7.33
2023-02-11T17:52:49.027Z,7.28
2023-02-11T17:55:15.671Z,6.74
2023-02-11T17:57:42.197Z,7.09
2023-02-11T18:00:09.618Z,7.09
2023-02-11T18:02:42.216Z,6.90
2023-02-11T18:05:09.077Z,7.07
2023-02-11T18:07:35.742Z,6.38
2023-02-11T18:10:02.365Z,6.59
2023-02-11T18:12:29.045Z,6.64
2023-02-11T18:14:57.979Z,7.07
2023-02-11T18:17:25.642Z,7.39
2023-02-11T18:19:56.368Z,7.33
2023-02-11T18:22:24.460Z,7.51
2023-02-11T18:24:55.071Z,7.33
2023-02-11T18:27:22.833Z,7.51
2023-02-11T18:29:49.591Z,7.14
2023-02-11T18:32:16.430Z,7.10
2023-02-11T18:34:43.068Z,7.19
2023-02-11T18:37:10.306Z,7.19
2023-02-11T18:39:37.102Z,7.85
2023-02-11T18:42:03.808Z,7.89
2023-02-11T18:44:30.329Z,7.24
2023-02-11T18:46:56.904Z,7.97
2023-02-11T18:49:23.455Z,7.37
2023-02-11T18:51:50.130Z,7.83
2023-02-11T18:54:16.729Z,8.03
2023-02-11T18:56:43.358Z,7.46
2023-02-11T18:59:10.052Z,7.50
2023-02-11T19:01:39.273Z,8.04
2023-02-11T19:04:06.836Z,8.10
2023-02-11T19:06:36.393Z,8.14
2023-02-11T19:09:11.164Z,7.62
2023-02-11T19:11:49.798Z,8.04
2023-02-11T19:14:23.679Z,8.20
2023-02-11T19:16:52.982Z,7.71
2023-02-11T19:19:24.040Z,7.74
2023-02-11T19:21:50.820Z,8.11
2023-02-11T19:24:19.864Z,8.12
2023-02-11T19:26:48.174Z,8.19
2023-02-11T19:29:15.303Z,8.29
2023-02-11T19:31:41.928Z,8.30
2023-02-11T19:34:10.948Z,8.37
2023-02-11T19:36:37.906Z,8.22
2023-02-11T19:39:05.112Z,8.20
2023-02-11T19:41:33.612Z,8.26
2023-02-11T19:44:00.825Z,7.92
2023-02-11T19:46:30.308Z,7.94
2023-02-11T19:48:56.950Z,7.91
2023-02-11T19:51:23.603Z,7.97
2023-02-11T19:53:51.199Z,8.34
2023-02-11T19:56:20.485Z,7.64
2023-02-11T19:58:47.560Z,8.51
2023-02-11T20:01:20.460Z,8.18
2023-02-11T20:03:54.688Z,8.41
2023-02-11T20:06:24.558Z,8.60
2023-02-11T20:09:00.118Z,8.14
2023-02-11T20:11:29.340Z,8.67
2023-02-11T20:13:56.736Z,8.34
2023-02-11T20:16:40.607Z,8.71
2023-02-11T20:19:16.757Z,8.28
2023-02-11T20:21:46.800Z,8.56
2023-02-11T20:24:14.342Z,8.19
2023-02-11T20:26:42.380Z,8.68
2023-02-11T20:29:09.491Z,8.07
2023-02-11T20:31:36.283Z,8.59
2023-02-11T20:34:03.528Z,8.25
2023-02-11T20:36:34.035Z,8.53
2023-02-11T20:39:01.245Z,8.10
2023-02-11T20:41:34.251Z,8.49
2023-02-11T20:44:04.227Z,8.51
2023-02-11T20:46:32.883Z,8.61
2023-02-11T20:49:00.456Z,8.09
2023-02-11T20:51:33.093Z,8.66
2023-02-11T20:54:00.037Z,8.67
2023-02-11T20:56:30.159Z,8.19
2023-02-11T20:58:58.564Z,8.67
2023-02-11T21:01:28.275Z,8.65
2023-02-11T21:03:58.233Z,8.18
2023-02-11T21:06:27.672Z,8.57
2023-02-11T21:08:54.398Z,8.70
2023-02-11T21:11:20.956Z,8.53
2023-02-11T21:13:48.593Z,8.02
2023-02-11T21:16:20.260Z,8.67
2023-02-11T21:18:48.140Z,8.41
2023-02-11T21:21:15.656Z,8.53
2023-02-11T21:23:42.275Z,8.07
2023-02-11T21:26:09.629Z,8.15
2023-02-11T21:28:39.827Z,8.15
2023-02-11T21:31:08.014Z,8.10
2023-02-11T21:33:35.000Z,8.70
2023-02-11T21:36:03.923Z,7.79
2023-02-11T21:38:30.998Z,8.15
2023-02-11T21:41:03.330Z,8.63
2023-02-11T21:43:30.084Z,8.08
2023-02-11T21:45:57.102Z,8.36
2023-02-11T21:48:25.609Z,8.40
2023-02-11T21:50:54.792Z,8.32
2023-02-11T21:53:21.426Z,8.39
2023-02-11T21:55:49.239Z,8.38
2023-02-11T21:58:15.750Z,8.55
2023-02-11T22:00:42.329Z,7.90
2023-02-11T22:03:08.956Z,8.54
2023-02-11T22:05:35.583Z,8.55
2023-02-11T22:08:02.418Z,7.84
2023-02-11T22:10:29.032Z,8.68
2023-02-11T22:12:55.622Z,8.55
2023-02-11T22:15:22.188Z,8.23
2023-02-11T22:17:48.763Z,8.46
2023-02-11T22:20:16.803Z,8.51
2023-02-11T22:22:43.348Z,8.67
2023-02-11T22:25:09.887Z,8.66
2023-02-11T22:27:36.417Z,8.06
2023-02-11T22:30:03.749Z,8.38
2023-02-11T22:32:30.365Z,8.55
2023-02-11T22:34:57.367Z,8.57
2023-02-11T22:37:24.120Z,8.52
2023-02-11T22:39:50.814Z,8.43
2023-02-11T22:42:17.377Z,8.52
2023-02-11T22:44:44.039Z,8.00
2023-02-11T22:47:10.654Z,8.55
2023-02-11T22:49:37.431Z,8.66
2023-02-11T22:52:04.196Z,8.12
2023-02-11T22:54:31.378Z,8.57
2023-02-11T22:56:58.016Z,8.57
2023-02-11T22:59:24.565Z,8.64
2023-02-11T23:01:51.245Z,8.48
2023-02-11T23:04:19.234Z,8.06
2023-02-11T23:06:47.531Z,8.70
2023-02-11T23:09:14.047Z,8.37
2023-02-11T23:11:41.402Z,8.65
2023-02-11T23:14:10.064Z,8.13
2023-02-11T23:16:36.761Z,8.45
2023-02-11T23:19:06.672Z,8.09
2023-02-11T23:21:35.953Z,7.94
2023-02-11T23:24:07.436Z,8.62
2023-02-11T23:26:35.018Z,8.50
2023-02-11T23:29:01.576Z,7.97
2023-02-11T23:31:33.878Z,8.43
2023-02-11T23:34:01.215Z,8.44
2023-02-11T23:36:28.658Z,8.57
2023-02-11T23:38:55.621Z,8.71
2023-02-11T23:41:22.837Z,8.70
2023-02-11T23:43:59.470Z,8.60
2023-02-11T23:46:27.564Z,8.55
2023-02-11T23:48:54.749Z,8.58
2023-02-11T23:51:22.006Z,8.22
2023-02-11T23:53:49.642Z,8.60
2023-02-11T23:56:19.535Z,8.52
2023-02-11T23:58:51.155Z,8.16
